VSV748 UAAA-UAII
Flight info
| Callsign | VSV748 |
|---|---|
| Flight time | 1h 15m |
| Altitude | 30000 |
| Route | EKLAT Z370 AGLEK Z817 TAR N143 ANESA Z580 KOLAM N143 TURIK TURIK4L |
| Aircraft | B738/M-SDE2E3FGHIRWXY/LB1 |
Departure
| Time | 2026-04-22 16:25 |
|---|---|
| Airport | Almaty International Airport (UAAA) |
Arrival
| Time | 2026-04-22 17:40 |
|---|---|
| Airport | Shymkent International Airport (UAII) |
| Time | Latitude | Longitude | Altitude | Speed | Heading |
|---|---|---|---|---|---|
| 2026-04-22 15:55 | 43.34857 | 77.02121 | 2227 ft | 0 kts | 3° |
| 2026-04-22 16:15 | 43.34849 | 77.02121 | 2227 ft | 4 kts | 4° |
| 2026-04-22 16:16 | 43.34824 | 77.02117 | 2226 ft | 3 kts | 6° |
| 2026-04-22 16:16 | 43.34802 | 77.02106 | 2223 ft | 4 kts | 52° |
| 2026-04-22 16:16 | 43.34793 | 77.02074 | 2224 ft | 3 kts | 89° |
| 2026-04-22 16:16 | 43.34793 | 77.02062 | 2226 ft | 0 kts | 91° |
| 2026-04-22 16:19 | 43.34793 | 77.02070 | 2225 ft | 2 kts | 91° |
| 2026-04-22 16:19 | 43.34792 | 77.02110 | 2226 ft | 6 kts | 92° |
| 2026-04-22 16:19 | 43.34789 | 77.02189 | 2227 ft | 10 kts | 94° |
| 2026-04-22 16:19 | 43.34783 | 77.02303 | 2225 ft | 13 kts | 92° |
| 2026-04-22 16:20 | 43.34776 | 77.02433 | 2227 ft | 13 kts | 94° |
| 2026-04-22 16:20 | 43.34772 | 77.02559 | 2224 ft | 13 kts | 86° |
| 2026-04-22 16:20 | 43.34723 | 77.02617 | 2225 ft | 13 kts | 200° |
| 2026-04-22 16:20 | 43.34658 | 77.02657 | 2228 ft | 12 kts | 114° |
| 2026-04-22 16:21 | 43.34645 | 77.02769 | 2226 ft | 12 kts | 82° |
| 2026-04-22 16:21 | 43.34693 | 77.02892 | 2224 ft | 18 kts | 56° |
| 2026-04-22 16:21 | 43.34772 | 77.03054 | 2226 ft | 23 kts | 56° |
| 2026-04-22 16:21 | 43.34871 | 77.03254 | 2225 ft | 27 kts | 56° |
| 2026-04-22 16:22 | 43.35111 | 77.03737 | 2226 ft | 34 kts | 56° |
| 2026-04-22 16:22 | 43.35249 | 77.04016 | 2227 ft | 37 kts | 56° |
| 2026-04-22 16:22 | 43.35395 | 77.04316 | 2225 ft | 39 kts | 56° |
| 2026-04-22 16:23 | 43.35460 | 77.04447 | 2227 ft | 5 kts | 235° |
| 2026-04-22 16:23 | 43.35435 | 77.04411 | 2225 ft | 5 kts | 221° |
| 2026-04-22 16:23 | 43.35412 | 77.04374 | 2227 ft | 5 kts | 232° |
| 2026-04-22 16:24 | 43.35392 | 77.04327 | 2225 ft | 7 kts | 240° |
| 2026-04-22 16:24 | 43.35278 | 77.04075 | 2224 ft | 32 kts | 236° |
| 2026-04-22 16:24 | 43.34963 | 77.03441 | 2225 ft | 126 kts | 236° |
| 2026-04-22 16:25 | 43.34562 | 77.02650 | 2232 ft | 179 kts | 234° |
| 2026-04-22 16:25 | 43.33576 | 76.98104 | 3834 ft | 234 kts | 272° |
| 2026-04-22 16:25 | 43.33724 | 76.95848 | 4695 ft | 245 kts | 275° |
| 2026-04-22 16:26 | 43.33905 | 76.93557 | 5319 ft | 252 kts | 276° |
| 2026-04-22 16:26 | 43.34092 | 76.91146 | 5981 ft | 256 kts | 276° |
| 2026-04-22 16:26 | 43.34257 | 76.88699 | 6671 ft | 257 kts | 275° |
| 2026-04-22 16:26 | 43.34396 | 76.86260 | 7430 ft | 256 kts | 274° |
| 2026-04-22 16:27 | 43.34517 | 76.83812 | 8029 ft | 265 kts | 273° |
| 2026-04-22 16:27 | 43.34628 | 76.81210 | 8532 ft | 279 kts | 272° |
| 2026-04-22 16:27 | 43.34729 | 76.78572 | 9503 ft | 279 kts | 272° |
| 2026-04-22 16:27 | 43.34731 | 76.78528 | 9519 ft | 279 kts | 272° |
| 2026-04-22 16:28 | 43.34766 | 76.77532 | 9937 ft | 278 kts | 272° |
| 2026-04-22 16:28 | 43.34856 | 76.74858 | 10754 ft | 288 kts | 272° |
| 2026-04-22 16:28 | 43.34955 | 76.71681 | 11015 ft | 318 kts | 271° |
| 2026-04-22 16:28 | 43.34977 | 76.70902 | 11098 ft | 324 kts | 271° |
| 2026-04-22 16:29 | 43.35039 | 76.68751 | 11503 ft | 332 kts | 271° |
| 2026-04-22 16:29 | 43.35129 | 76.65553 | 12347 ft | 336 kts | 271° |
| 2026-04-22 16:29 | 43.35246 | 76.61249 | 13556 ft | 339 kts | 271° |
| 2026-04-22 16:29 | 43.35303 | 76.59093 | 14062 ft | 342 kts | 271° |
| 2026-04-22 16:30 | 43.35388 | 76.55814 | 14836 ft | 345 kts | 271° |
| 2026-04-22 16:30 | 43.35472 | 76.52503 | 15642 ft | 347 kts | 271° |
| 2026-04-22 16:30 | 43.35555 | 76.49174 | 16435 ft | 350 kts | 271° |
| 2026-04-22 16:30 | 43.35638 | 76.45815 | 17188 ft | 353 kts | 272° |
| 2026-04-22 16:31 | 43.35720 | 76.42422 | 17947 ft | 357 kts | 272° |
| 2026-04-22 16:31 | 43.35802 | 76.38998 | 18625 ft | 360 kts | 272° |
| 2026-04-22 16:31 | 43.35882 | 76.35595 | 19295 ft | 362 kts | 272° |
| 2026-04-22 16:31 | 43.35963 | 76.32125 | 19968 ft | 364 kts | 272° |
| 2026-04-22 16:32 | 43.36044 | 76.28627 | 20623 ft | 367 kts | 272° |
| 2026-04-22 16:32 | 43.36123 | 76.25115 | 21270 ft | 369 kts | 272° |
| 2026-04-22 16:32 | 43.36203 | 76.21570 | 21895 ft | 372 kts | 272° |
| 2026-04-22 16:32 | 43.36282 | 76.18009 | 22511 ft | 375 kts | 272° |
| 2026-04-22 16:33 | 43.36360 | 76.14415 | 23113 ft | 377 kts | 272° |
| 2026-04-22 16:33 | 43.36437 | 76.10811 | 23791 ft | 375 kts | 272° |
| 2026-04-22 16:33 | 43.36512 | 76.07266 | 24598 ft | 368 kts | 272° |
| 2026-04-22 16:33 | 43.36584 | 76.03784 | 25415 ft | 362 kts | 272° |
| 2026-04-22 16:34 | 43.36654 | 76.00352 | 26143 ft | 358 kts | 272° |
| 2026-04-22 16:34 | 43.36723 | 75.96948 | 26815 ft | 355 kts | 272° |
| 2026-04-22 16:34 | 43.36790 | 75.93560 | 27517 ft | 352 kts | 272° |
| 2026-04-22 16:34 | 43.36856 | 75.90220 | 28270 ft | 347 kts | 273° |
| 2026-04-22 16:35 | 43.36920 | 75.86921 | 29002 ft | 343 kts | 273° |
| 2026-04-22 16:35 | 43.36982 | 75.83654 | 29665 ft | 341 kts | 273° |
| 2026-04-22 16:35 | 43.37044 | 75.80406 | 29798 ft | 347 kts | 273° |
| 2026-04-22 16:35 | 43.37105 | 75.77089 | 29830 ft | 347 kts | 273° |
| 2026-04-22 16:36 | 43.37223 | 75.70532 | 29834 ft | 340 kts | 273° |
| 2026-04-22 16:36 | 43.37339 | 75.64012 | 29831 ft | 342 kts | 273° |
| 2026-04-22 16:37 | 43.37450 | 75.57462 | 29841 ft | 343 kts | 273° |
| 2026-04-22 16:37 | 43.38084 | 75.51006 | 29840 ft | 341 kts | 284° |
| 2026-04-22 16:38 | 43.39277 | 75.44689 | 29830 ft | 341 kts | 284° |
| 2026-04-22 16:38 | 43.40465 | 75.38378 | 29828 ft | 340 kts | 284° |
| 2026-04-22 16:39 | 43.41626 | 75.32110 | 29841 ft | 339 kts | 284° |
| 2026-04-22 16:39 | 43.42783 | 75.25821 | 29836 ft | 339 kts | 283° |
| 2026-04-22 16:40 | 43.43937 | 75.19540 | 29841 ft | 338 kts | 284° |
| 2026-04-22 16:41 | 43.45685 | 75.10140 | 29829 ft | 337 kts | 283° |
| 2026-04-22 16:41 | 43.46843 | 75.03890 | 29835 ft | 337 kts | 283° |
| 2026-04-22 16:42 | 43.47987 | 74.97683 | 29830 ft | 337 kts | 283° |
| 2026-04-22 16:42 | 43.49136 | 74.91436 | 29841 ft | 337 kts | 283° |
| 2026-04-22 16:43 | 43.50283 | 74.85176 | 29836 ft | 337 kts | 283° |
| 2026-04-22 16:43 | 43.50768 | 74.78775 | 29843 ft | 338 kts | 270° |
| 2026-04-22 16:44 | 43.50095 | 74.72356 | 29847 ft | 341 kts | 260° |
| 2026-04-22 16:44 | 43.48964 | 74.65997 | 29828 ft | 341 kts | 260° |
| 2026-04-22 16:45 | 43.47829 | 74.59658 | 29825 ft | 340 kts | 260° |
| 2026-04-22 16:45 | 43.46711 | 74.53345 | 29821 ft | 339 kts | 260° |
| 2026-04-22 16:46 | 43.45600 | 74.47042 | 29831 ft | 339 kts | 260° |
| 2026-04-22 16:46 | 43.44486 | 74.40736 | 29816 ft | 339 kts | 260° |
| 2026-04-22 16:47 | 43.43365 | 74.34408 | 29815 ft | 340 kts | 259° |
| 2026-04-22 16:47 | 43.42246 | 74.28124 | 29818 ft | 340 kts | 259° |
| 2026-04-22 16:48 | 43.41127 | 74.21809 | 29820 ft | 340 kts | 259° |
| 2026-04-22 16:48 | 43.40011 | 74.15488 | 29821 ft | 340 kts | 259° |
| 2026-04-22 16:49 | 43.38890 | 74.09156 | 29812 ft | 340 kts | 259° |
| 2026-04-22 16:49 | 43.37764 | 74.02829 | 29800 ft | 340 kts | 259° |
| 2026-04-22 16:50 | 43.36637 | 73.96511 | 29801 ft | 340 kts | 259° |
| 2026-04-22 16:50 | 43.35512 | 73.90233 | 29803 ft | 340 kts | 259° |
| 2026-04-22 16:51 | 43.34379 | 73.83924 | 29810 ft | 340 kts | 259° |
| 2026-04-22 16:51 | 43.33242 | 73.77619 | 29811 ft | 340 kts | 259° |
| 2026-04-22 16:52 | 43.32101 | 73.71315 | 29813 ft | 340 kts | 259° |
| 2026-04-22 16:52 | 43.30957 | 73.65014 | 29808 ft | 340 kts | 259° |
| 2026-04-22 16:53 | 43.29810 | 73.58719 | 29808 ft | 340 kts | 258° |
| 2026-04-22 16:53 | 43.28658 | 73.52419 | 29814 ft | 340 kts | 258° |
| 2026-04-22 16:54 | 43.27501 | 73.46108 | 29813 ft | 341 kts | 258° |
| 2026-04-22 16:54 | 43.26342 | 73.39811 | 29813 ft | 340 kts | 258° |
| 2026-04-22 16:55 | 43.25178 | 73.33507 | 29817 ft | 340 kts | 258° |
| 2026-04-22 16:55 | 43.24018 | 73.27244 | 29813 ft | 341 kts | 258° |
| 2026-04-22 16:56 | 43.22847 | 73.20941 | 29815 ft | 341 kts | 258° |
| 2026-04-22 16:56 | 43.21671 | 73.14630 | 29814 ft | 342 kts | 258° |
| 2026-04-22 16:57 | 43.20491 | 73.08322 | 29814 ft | 342 kts | 258° |
| 2026-04-22 16:57 | 43.19299 | 73.02005 | 29816 ft | 342 kts | 258° |
| 2026-04-22 16:58 | 43.18302 | 72.96754 | 29816 ft | 343 kts | 257° |
| 2026-04-22 16:58 | 43.16894 | 72.89354 | 29821 ft | 344 kts | 257° |
| 2026-04-22 16:59 | 43.15691 | 72.83049 | 29823 ft | 344 kts | 257° |
| 2026-04-22 16:59 | 43.14474 | 72.76692 | 29821 ft | 345 kts | 257° |
| 2026-04-22 17:00 | 43.13253 | 72.70334 | 29825 ft | 346 kts | 257° |
| 2026-04-22 17:00 | 43.11408 | 72.60766 | 29825 ft | 347 kts | 257° |
| 2026-04-22 17:01 | 43.10174 | 72.54382 | 29829 ft | 347 kts | 253° |
| 2026-04-22 17:01 | 43.08931 | 72.48000 | 29830 ft | 347 kts | 257° |
| 2026-04-22 17:02 | 43.07689 | 72.41624 | 29846 ft | 347 kts | 257° |
| 2026-04-22 17:02 | 43.06441 | 72.35238 | 29842 ft | 348 kts | 257° |
| 2026-04-22 17:03 | 43.05191 | 72.28860 | 29846 ft | 347 kts | 257° |
| 2026-04-22 17:03 | 43.03935 | 72.22478 | 29849 ft | 347 kts | 257° |
| 2026-04-22 17:04 | 43.02678 | 72.16111 | 29848 ft | 347 kts | 257° |
| 2026-04-22 17:04 | 43.01428 | 72.09798 | 29855 ft | 346 kts | 257° |
| 2026-04-22 17:05 | 43.00168 | 72.03453 | 29851 ft | 345 kts | 257° |
| 2026-04-22 17:05 | 42.98908 | 71.97130 | 29852 ft | 345 kts | 256° |
| 2026-04-22 17:06 | 42.97648 | 71.90819 | 29849 ft | 344 kts | 256° |
| 2026-04-22 17:06 | 42.96382 | 71.84510 | 29854 ft | 344 kts | 256° |
| 2026-04-22 17:07 | 42.95236 | 71.78169 | 29857 ft | 344 kts | 258° |
| 2026-04-22 17:07 | 42.94232 | 71.71778 | 29860 ft | 345 kts | 258° |
| 2026-04-22 17:08 | 42.93213 | 71.65371 | 29869 ft | 346 kts | 258° |
| 2026-04-22 17:08 | 42.92171 | 71.58944 | 29877 ft | 348 kts | 258° |
| 2026-04-22 17:09 | 42.91117 | 71.52500 | 29875 ft | 348 kts | 258° |
| 2026-04-22 17:09 | 42.90451 | 71.48449 | 29883 ft | 349 kts | 258° |
| 2026-04-22 17:10 | 42.89340 | 71.41710 | 29881 ft | 350 kts | 257° |
| 2026-04-22 17:10 | 42.88276 | 71.35277 | 29886 ft | 350 kts | 257° |
| 2026-04-22 17:11 | 42.87188 | 71.28813 | 29802 ft | 351 kts | 255° |
| 2026-04-22 17:11 | 42.86381 | 71.25632 | 29425 ft | 348 kts | 249° |
| 2026-04-22 17:11 | 42.85468 | 71.22606 | 29009 ft | 344 kts | 249° |
| 2026-04-22 17:12 | 42.84560 | 71.19644 | 28603 ft | 340 kts | 248° |
| 2026-04-22 17:12 | 42.83653 | 71.16689 | 28204 ft | 336 kts | 248° |
| 2026-04-22 17:12 | 42.82758 | 71.13761 | 27795 ft | 333 kts | 248° |
| 2026-04-22 17:12 | 42.81874 | 71.10859 | 27408 ft | 330 kts | 248° |
| 2026-04-22 17:13 | 42.80999 | 71.07980 | 27004 ft | 327 kts | 248° |
| 2026-04-22 17:13 | 42.80133 | 71.05128 | 26624 ft | 324 kts | 248° |
| 2026-04-22 17:13 | 42.79273 | 71.02296 | 26229 ft | 322 kts | 248° |
| 2026-04-22 17:13 | 42.78421 | 70.99491 | 25862 ft | 320 kts | 248° |
| 2026-04-22 17:14 | 42.77575 | 70.96707 | 25476 ft | 317 kts | 248° |
| 2026-04-22 17:14 | 42.76734 | 70.93944 | 25121 ft | 314 kts | 248° |
| 2026-04-22 17:14 | 42.75902 | 70.91210 | 24757 ft | 312 kts | 248° |
| 2026-04-22 17:14 | 42.75071 | 70.88487 | 24392 ft | 311 kts | 248° |
| 2026-04-22 17:15 | 42.74791 | 70.87569 | 24269 ft | 310 kts | 248° |
| 2026-04-22 17:15 | 42.73699 | 70.83991 | 23801 ft | 308 kts | 247° |
| 2026-04-22 17:15 | 42.72601 | 70.80401 | 23270 ft | 306 kts | 247° |
| 2026-04-22 17:15 | 42.72060 | 70.78633 | 22996 ft | 305 kts | 247° |
| 2026-04-22 17:16 | 42.71244 | 70.75970 | 22598 ft | 304 kts | 247° |
| 2026-04-22 17:16 | 42.70435 | 70.73328 | 22236 ft | 302 kts | 247° |
| 2026-04-22 17:16 | 42.69632 | 70.70711 | 21870 ft | 300 kts | 247° |
| 2026-04-22 17:16 | 42.68830 | 70.68100 | 21514 ft | 298 kts | 247° |
| 2026-04-22 17:17 | 42.68035 | 70.65515 | 21160 ft | 296 kts | 247° |
| 2026-04-22 17:17 | 42.66983 | 70.62100 | 20708 ft | 294 kts | 247° |
| 2026-04-22 17:17 | 42.66461 | 70.60357 | 20470 ft | 295 kts | 249° |
| 2026-04-22 17:17 | 42.65740 | 70.57733 | 20129 ft | 297 kts | 250° |
| 2026-04-22 17:18 | 42.65039 | 70.55113 | 19791 ft | 303 kts | 250° |
| 2026-04-22 17:18 | 42.64307 | 70.52378 | 19424 ft | 312 kts | 250° |
| 2026-04-22 17:18 | 42.63552 | 70.49585 | 19052 ft | 315 kts | 249° |
| 2026-04-22 17:18 | 42.62794 | 70.46803 | 18674 ft | 313 kts | 249° |
| 2026-04-22 17:19 | 42.61277 | 70.41261 | 17886 ft | 313 kts | 249° |
| 2026-04-22 17:19 | 42.59763 | 70.35751 | 17119 ft | 309 kts | 249° |
| 2026-04-22 17:20 | 42.58280 | 70.30365 | 16410 ft | 304 kts | 249° |
| 2026-04-22 17:20 | 42.56808 | 70.25027 | 15708 ft | 300 kts | 249° |
| 2026-04-22 17:21 | 42.56080 | 70.22389 | 15365 ft | 298 kts | 249° |
| 2026-04-22 17:21 | 42.54630 | 70.17148 | 14691 ft | 295 kts | 249° |
| 2026-04-22 17:22 | 42.53199 | 70.11980 | 14015 ft | 290 kts | 249° |
| 2026-04-22 17:22 | 42.52490 | 70.09428 | 13689 ft | 288 kts | 249° |
| 2026-04-22 17:22 | 42.51376 | 70.05197 | 13169 ft | 283 kts | 251° |
| 2026-04-22 17:23 | 42.49043 | 69.94929 | 11798 ft | 278 kts | 251° |
| 2026-04-22 17:24 | 42.48474 | 69.92438 | 11454 ft | 277 kts | 251° |
| 2026-04-22 17:24 | 42.47904 | 69.89955 | 11141 ft | 275 kts | 251° |
| 2026-04-22 17:24 | 42.47338 | 69.87497 | 10852 ft | 273 kts | 251° |
| 2026-04-22 17:24 | 42.46776 | 69.85062 | 10648 ft | 268 kts | 251° |
| 2026-04-22 17:25 | 42.46226 | 69.82681 | 10462 ft | 262 kts | 250° |
| 2026-04-22 17:25 | 42.45685 | 69.80343 | 10249 ft | 258 kts | 250° |
| 2026-04-22 17:25 | 42.45144 | 69.78015 | 10058 ft | 259 kts | 250° |
| 2026-04-22 17:25 | 42.44598 | 69.75664 | 9780 ft | 266 kts | 250° |
| 2026-04-22 17:26 | 42.44032 | 69.73235 | 9392 ft | 275 kts | 250° |
| 2026-04-22 17:26 | 42.43454 | 69.70747 | 8997 ft | 276 kts | 250° |
| 2026-04-22 17:26 | 42.42880 | 69.68280 | 8654 ft | 274 kts | 250° |
| 2026-04-22 17:26 | 42.42309 | 69.65830 | 8342 ft | 272 kts | 250° |
| 2026-04-22 17:27 | 42.41742 | 69.63401 | 8037 ft | 270 kts | 250° |
| 2026-04-22 17:27 | 42.41074 | 69.61056 | 7707 ft | 266 kts | 236° |
| 2026-04-22 17:27 | 42.39800 | 69.59303 | 7424 ft | 261 kts | 212° |
| 2026-04-22 17:27 | 42.38121 | 69.58446 | 7192 ft | 258 kts | 189° |
| 2026-04-22 17:28 | 42.36388 | 69.58577 | 7133 ft | 245 kts | 167° |
| 2026-04-22 17:28 | 42.34901 | 69.59588 | 7020 ft | 236 kts | 146° |
| 2026-04-22 17:28 | 42.33788 | 69.61149 | 6920 ft | 227 kts | 129° |
| 2026-04-22 17:28 | 42.33158 | 69.63074 | 6832 ft | 220 kts | 112° |
| 2026-04-22 17:29 | 42.32734 | 69.64999 | 6747 ft | 207 kts | 112° |
| 2026-04-22 17:29 | 42.32323 | 69.66871 | 6388 ft | 209 kts | 112° |
| 2026-04-22 17:29 | 42.31919 | 69.68721 | 6188 ft | 202 kts | 112° |
| 2026-04-22 17:29 | 42.31532 | 69.70497 | 6044 ft | 192 kts | 112° |
| 2026-04-22 17:30 | 42.31166 | 69.72178 | 5918 ft | 184 kts | 112° |
| 2026-04-22 17:30 | 42.30800 | 69.73843 | 5827 ft | 184 kts | 112° |
| 2026-04-22 17:30 | 42.30441 | 69.75475 | 5743 ft | 182 kts | 113° |
| 2026-04-22 17:30 | 42.30080 | 69.77118 | 5638 ft | 182 kts | 112° |
| 2026-04-22 17:31 | 42.29854 | 69.78788 | 5512 ft | 182 kts | 91° |
| 2026-04-22 17:31 | 42.30082 | 69.80462 | 5423 ft | 183 kts | 77° |
| 2026-04-22 17:31 | 42.30632 | 69.82029 | 5326 ft | 186 kts | 58° |
| 2026-04-22 17:31 | 42.31528 | 69.83287 | 5206 ft | 187 kts | 36° |
| 2026-04-22 17:32 | 42.32677 | 69.84059 | 5102 ft | 184 kts | 14° |
| 2026-04-22 17:32 | 42.33938 | 69.84248 | 4995 ft | 182 kts | 352° |
| 2026-04-22 17:32 | 42.35147 | 69.83861 | 4906 ft | 174 kts | 332° |
| 2026-04-22 17:32 | 42.36146 | 69.83039 | 4798 ft | 163 kts | 315° |
| 2026-04-22 17:33 | 42.36702 | 69.82377 | 4727 ft | 159 kts | 307° |
| 2026-04-22 17:33 | 42.37412 | 69.80741 | 4548 ft | 145 kts | 263° |
| 2026-04-22 17:33 | 42.37119 | 69.79590 | 4525 ft | 142 kts | 244° |
| 2026-04-22 17:33 | 42.36842 | 69.78309 | 4421 ft | 143 kts | 250° |
| 2026-04-22 17:34 | 42.36561 | 69.77027 | 4340 ft | 141 kts | 249° |
| 2026-04-22 17:34 | 42.36275 | 69.75760 | 4257 ft | 140 kts | 248° |
| 2026-04-22 17:34 | 42.35989 | 69.74511 | 4185 ft | 139 kts | 248° |
| 2026-04-22 17:34 | 42.35709 | 69.73303 | 4108 ft | 139 kts | 248° |
| 2026-04-22 17:35 | 42.35420 | 69.72061 | 4018 ft | 138 kts | 248° |
| 2026-04-22 17:35 | 42.35135 | 69.70847 | 3993 ft | 138 kts | 248° |
| 2026-04-22 17:35 | 42.34840 | 69.69591 | 4002 ft | 139 kts | 248° |
| 2026-04-22 17:35 | 42.34554 | 69.68373 | 3996 ft | 137 kts | 248° |
| 2026-04-22 17:36 | 42.34262 | 69.67138 | 3940 ft | 139 kts | 246° |
| 2026-04-22 17:36 | 42.33848 | 69.65978 | 3774 ft | 135 kts | 230° |
| 2026-04-22 17:36 | 42.33188 | 69.65114 | 3678 ft | 134 kts | 228° |
| 2026-04-22 17:36 | 42.33019 | 69.63895 | 3563 ft | 145 kts | 283° |
| 2026-04-22 17:37 | 42.33419 | 69.62613 | 3363 ft | 147 kts | 274° |
| 2026-04-22 17:37 | 42.33565 | 69.61280 | 3187 ft | 144 kts | 278° |
| 2026-04-22 17:37 | 42.33862 | 69.59993 | 2984 ft | 142 kts | 278° |
| 2026-04-22 17:37 | 42.34127 | 69.58700 | 2806 ft | 143 kts | 279° |
| 2026-04-22 17:38 | 42.34403 | 69.57402 | 2608 ft | 143 kts | 279° |
| 2026-04-22 17:38 | 42.34678 | 69.56111 | 2409 ft | 142 kts | 281° |
| 2026-04-22 17:38 | 42.34951 | 69.54832 | 2209 ft | 141 kts | 282° |
| 2026-04-22 17:38 | 42.35223 | 69.53562 | 2058 ft | 143 kts | 282° |
| 2026-04-22 17:39 | 42.35502 | 69.52244 | 1837 ft | 146 kts | 283° |
| 2026-04-22 17:39 | 42.35762 | 69.50963 | 1642 ft | 136 kts | 282° |
| 2026-04-22 17:39 | 42.36296 | 69.48536 | 1380 ft | 141 kts | 287° |
| 2026-04-22 17:40 | 42.36568 | 69.47305 | 1352 ft | 125 kts | 286° |
| 2026-04-22 17:40 | 42.36729 | 69.46549 | 1336 ft | 51 kts | 286° |
| 2026-04-22 17:40 | 42.36798 | 69.46212 | 1330 ft | 34 kts | 285° |
| 2026-04-22 17:40 | 42.36857 | 69.45919 | 1326 ft | 30 kts | 289° |
| 2026-04-22 17:41 | 42.36905 | 69.45665 | 1318 ft | 15 kts | 317° |
| 2026-04-22 17:41 | 42.36955 | 69.45679 | 1318 ft | 2 kts | 70° |
| 2026-04-22 17:41 | 42.36951 | 69.45698 | 1319 ft | 2 kts | 119° |
| 2026-04-22 17:41 | 42.36937 | 69.45724 | 1319 ft | 5 kts | 128° |
| 2026-04-22 17:42 | 42.36908 | 69.45774 | 1321 ft | 8 kts | 126° |
| 2026-04-22 17:42 | 42.36875 | 69.45853 | 1323 ft | 12 kts | 108° |
| 2026-04-22 17:42 | 42.36833 | 69.46042 | 1326 ft | 28 kts | 107° |
| 2026-04-22 17:42 | 42.36765 | 69.46351 | 1333 ft | 40 kts | 106° |
| 2026-04-22 17:43 | 42.36678 | 69.46755 | 1338 ft | 50 kts | 107° |
| 2026-04-22 17:43 | 42.36570 | 69.47247 | 1350 ft | 58 kts | 106° |
| 2026-04-22 17:43 | 42.36463 | 69.47741 | 1362 ft | 50 kts | 106° |
| 2026-04-22 17:43 | 42.36399 | 69.48079 | 1368 ft | 15 kts | 64° |
| 2026-04-22 17:44 | 42.36487 | 69.48149 | 1368 ft | 13 kts | 41° |
| 2026-04-22 17:44 | 42.36481 | 69.48229 | 1370 ft | 9 kts | 104° |
| 2026-04-22 17:44 | 42.36463 | 69.48333 | 1370 ft | 17 kts | 103° |
| 2026-04-22 17:44 | 42.36426 | 69.48535 | 1375 ft | 27 kts | 100° |
| 2026-04-22 17:45 | 42.36471 | 69.48798 | 1376 ft | 29 kts | 71° |
| 2026-04-22 17:45 | 42.36545 | 69.49039 | 1381 ft | 27 kts | 59° |
| 2026-04-22 17:45 | 42.36594 | 69.49169 | 1385 ft | 6 kts | 43° |
| 2026-04-22 17:45 | 42.36602 | 69.49176 | 1383 ft | 0 kts | 28° |